createdAt,value
2023-02-27T00:01:22.246Z,93664.22
2023-02-27T00:03:50.160Z,93657.63
2023-02-27T00:06:18.565Z,93662.41
2023-02-27T00:08:47.060Z,93666.63
2023-02-27T00:11:15.003Z,93655.41
2023-02-27T00:13:42.974Z,93660.38
2023-02-27T00:16:13.023Z,93663.19
2023-02-27T00:18:41.190Z,93664.00
2023-02-27T00:21:09.119Z,93651.19
2023-02-27T00:23:37.052Z,93654.59
2023-02-27T00:26:05.054Z,93658.81
2023-02-27T00:28:33.025Z,93654.97
2023-02-27T00:31:00.923Z,93659.41
2023-02-27T00:33:30.182Z,93674.75
2023-02-27T00:35:58.673Z,93654.97
2023-02-27T00:38:26.855Z,93653.59
2023-02-27T00:40:55.165Z,93658.41
2023-02-27T00:43:23.025Z,93643.59
2023-02-27T00:45:50.907Z,93655.00
2023-02-27T00:48:18.799Z,93647.19
2023-02-27T00:50:48.111Z,93652.78
2023-02-27T00:53:15.995Z,93658.78
2023-02-27T00:55:43.938Z,93662.78
2023-02-27T00:58:11.788Z,93677.75
2023-02-27T01:00:40.009Z,93679.13
2023-02-27T01:03:07.915Z,93670.34
2023-02-27T01:05:35.825Z,93661.34
2023-02-27T01:08:05.380Z,93667.09
2023-02-27T01:10:33.257Z,93668.72
2023-02-27T01:13:01.363Z,93672.94
2023-02-27T01:15:29.914Z,93667.56
2023-02-27T01:17:57.771Z,93660.97
2023-02-27T01:20:25.657Z,93664.75
2023-02-27T01:22:53.485Z,93675.38
2023-02-27T01:25:22.719Z,93658.00
2023-02-27T01:27:50.528Z,93660.75
2023-02-27T01:30:18.593Z,93658.00
2023-02-27T01:32:46.604Z,93667.41
2023-02-27T01:35:14.529Z,93668.81
2023-02-27T01:37:42.508Z,93668.41
2023-02-27T01:40:12.134Z,93693.63
2023-02-27T01:42:41.387Z,93690.19
2023-02-27T01:45:27.703Z,93722.75
2023-02-27T01:48:01.963Z,93730.53
2023-02-27T01:50:29.829Z,93734.75
2023-02-27T01:53:03.963Z,93721.38
2023-02-27T01:55:34.961Z,93742.56
2023-02-27T01:58:04.771Z,93719.16
2023-02-27T02:00:32.685Z,93735.75
2023-02-27T02:05:51.061Z,93735.59
2023-02-27T02:08:22.036Z,93728.38
2023-02-27T02:10:52.798Z,93758.16
2023-02-27T02:13:23.196Z,93779.94
2023-02-27T02:16:05.345Z,93787.84
2023-02-27T02:18:44.043Z,93775.72
2023-02-27T02:21:46.731Z,93806.56
2023-02-27T02:25:02.971Z,93891.63
2023-02-27T02:27:45.278Z,93943.25
2023-02-27T02:30:45.973Z,93932.72
2023-02-27T02:33:45.736Z,93912.34
2023-02-27T02:36:53.405Z,93910.53
2023-02-27T02:39:34.140Z,93883.00
2023-02-27T02:42:06.172Z,93901.81
2023-02-27T02:44:43.281Z,93903.88
2023-02-27T02:47:21.988Z,93899.22
2023-02-27T02:49:57.961Z,93928.59
2023-02-27T02:52:37.049Z,93934.53
2023-02-27T02:55:12.520Z,93933.88
2023-02-27T02:57:44.284Z,93941.56
2023-02-27T03:00:18.147Z,93936.22
2023-02-27T03:02:50.050Z,93944.94
2023-02-27T03:05:23.646Z,93946.72
2023-02-27T03:07:58.054Z,93944.06
2023-02-27T03:10:32.144Z,93950.66
2023-02-27T03:13:03.918Z,93966.31
2023-02-27T03:15:36.959Z,93978.28
2023-02-27T03:18:08.824Z,93981.97
2023-02-27T03:20:42.777Z,93988.00
2023-02-27T03:23:14.096Z,93987.97
2023-02-27T03:25:46.825Z,93988.88
2023-02-27T03:28:19.731Z,94012.03
2023-02-27T03:30:53.451Z,94023.19
2023-02-27T03:33:26.364Z,94036.75
2023-02-27T03:36:00.264Z,94043.69
2023-02-27T03:38:37.441Z,94056.44
2023-02-27T03:41:15.614Z,94065.16
2023-02-27T03:43:51.231Z,94070.16
2023-02-27T03:46:23.725Z,94069.50
2023-02-27T03:48:51.776Z,94069.69
2023-02-27T03:51:22.779Z,94075.50
2023-02-27T03:53:55.885Z,94088.88
2023-02-27T03:56:29.643Z,94092.44
2023-02-27T03:58:57.703Z,94089.34
2023-02-27T04:01:26.282Z,94104.03
2023-02-27T04:03:58.037Z,94112.44
2023-02-27T04:06:43.911Z,94100.78
2023-02-27T04:09:23.788Z,94112.56
2023-02-27T04:12:12.956Z,94107.53
2023-02-27T04:14:53.386Z,94109.94
2023-02-27T04:17:27.054Z,94123.00
2023-02-27T04:20:19.347Z,94126.72
2023-02-27T04:22:50.937Z,94132.00
2023-02-27T04:25:32.936Z,94136.19
2023-02-27T04:28:10.282Z,94138.50
2023-02-27T04:30:47.025Z,94143.31
2023-02-27T04:33:21.204Z,94144.50
2023-02-27T04:35:52.314Z,94163.09
2023-02-27T04:38:24.033Z,94162.66
2023-02-27T04:40:56.835Z,94197.38
2023-02-27T04:43:29.351Z,94180.25
2023-02-27T04:46:00.983Z,94189.53
2023-02-27T04:48:34.445Z,94203.16
2023-02-27T04:51:09.848Z,94195.41
2023-02-27T04:53:46.644Z,94211.03
2023-02-27T04:56:21.621Z,94218.91
2023-02-27T04:58:54.168Z,94212.28
2023-02-27T05:01:30.012Z,94213.47
2023-02-27T05:04:00.622Z,94217.22
2023-02-27T05:06:31.849Z,94216.75
2023-02-27T05:09:07.563Z,94226.09
2023-02-27T05:11:42.572Z,94223.47
2023-02-27T05:14:18.354Z,94234.44
2023-02-27T05:16:51.518Z,94242.16
2023-02-27T05:19:20.682Z,94243.63
2023-02-27T05:21:56.891Z,94241.19
2023-02-27T05:24:34.129Z,94255.69
2023-02-27T05:27:17.958Z,94260.22
2023-02-27T05:29:50.834Z,94261.72
2023-02-27T05:32:26.468Z,94270.78
2023-02-27T05:34:58.226Z,94280.28
2023-02-27T05:37:32.378Z,94281.72
2023-02-27T05:40:06.560Z,94282.00
2023-02-27T05:42:39.384Z,94290.59
2023-02-27T05:45:13.245Z,94284.91
2023-02-27T05:47:45.918Z,94292.56
2023-02-27T05:50:17.510Z,94286.13
2023-02-27T05:52:47.960Z,94275.97
2023-02-27T05:55:23.351Z,94285.34
2023-02-27T05:57:55.859Z,94287.91
2023-02-27T06:00:31.586Z,94291.78
2023-02-27T06:02:59.661Z,94307.84
2023-02-27T06:05:29.089Z,94311.53
2023-02-27T06:07:57.209Z,94322.03
2023-02-27T06:10:25.954Z,94311.72
2023-02-27T06:12:53.872Z,94326.22
2023-02-27T06:15:23.079Z,94323.63
2023-02-27T06:17:52.317Z,94333.75
2023-02-27T06:20:20.258Z,94330.19
2023-02-27T06:22:48.118Z,94316.63
2023-02-27T06:25:16.124Z,94322.47
2023-02-27T06:27:44.189Z,94323.47
2023-02-27T06:30:14.082Z,94326.88
2023-02-27T06:32:41.999Z,94337.50
2023-02-27T06:35:13.697Z,94347.66
2023-02-27T06:37:41.577Z,94356.44
2023-02-27T06:40:12.526Z,94362.25
2023-02-27T06:42:40.561Z,94367.72
2023-02-27T06:45:10.599Z,94363.00
2023-02-27T06:47:38.582Z,94354.69
2023-02-27T06:50:07.291Z,94371.41
2023-02-27T06:52:36.788Z,94372.72
2023-02-27T06:55:05.034Z,94373.03
2023-02-27T06:57:33.027Z,94372.50
2023-02-27T07:00:00.969Z,94371.19
2023-02-27T07:02:28.865Z,94350.41
2023-02-27T07:04:57.597Z,94358.56
2023-02-27T07:07:35.269Z,94361.59
2023-02-27T07:10:08.115Z,94366.22
2023-02-27T07:12:35.983Z,94365.44
2023-02-27T07:15:04.126Z,94367.25
2023-02-27T07:17:32.202Z,94372.78
2023-02-27T07:20:00.170Z,94379.59
2023-02-27T07:22:28.120Z,94384.09
2023-02-27T07:24:55.999Z,94374.19
2023-02-27T07:27:25.322Z,94387.00
2023-02-27T07:29:54.080Z,94387.00
2023-02-27T07:32:22.153Z,94397.63
2023-02-27T07:34:50.113Z,94393.06
2023-02-27T07:37:18.181Z,94404.56
2023-02-27T07:39:46.125Z,94394.25
2023-02-27T07:42:14.005Z,94389.72
2023-02-27T07:44:43.257Z,94394.13
2023-02-27T07:47:11.367Z,94397.97
2023-02-27T07:49:39.315Z,94404.56
2023-02-27T07:52:07.881Z,94385.50
2023-02-27T07:54:37.602Z,94394.28
2023-02-27T07:57:05.858Z,94400.22
2023-02-27T07:59:33.884Z,94398.28
2023-02-27T08:02:03.320Z,94401.78
2023-02-27T08:04:31.326Z,94404.00
2023-02-27T08:06:59.405Z,94409.69
2023-02-27T08:09:27.298Z,94417.25
2023-02-27T08:11:55.125Z,94408.06
2023-02-27T08:14:23.228Z,94410.81
2023-02-27T08:16:51.261Z,94400.41
2023-02-27T08:19:20.464Z,94406.81
2023-02-27T08:21:48.345Z,94412.22
2023-02-27T08:24:16.203Z,94417.59
2023-02-27T08:26:44.169Z,94423.63
2023-02-27T08:29:12.201Z,94416.50
2023-02-27T08:31:40.125Z,94431.72
2023-02-27T08:34:10.571Z,94423.47
2023-02-27T08:36:40.425Z,94420.72
2023-02-27T08:39:09.843Z,94412.78
2023-02-27T08:41:37.938Z,94415.72
2023-02-27T08:44:06.090Z,94416.03
2023-02-27T08:46:34.037Z,94417.31
2023-02-27T08:49:03.155Z,94411.16
2023-02-27T08:51:31.265Z,94422.13
2023-02-27T08:54:00.460Z,94413.41
2023-02-27T08:56:28.867Z,94413.75
2023-02-27T08:58:57.337Z,94420.56
2023-02-27T09:01:27.589Z,94433.25
2023-02-27T09:03:55.697Z,94442.78
2023-02-27T09:06:26.105Z,94439.25
2023-02-27T09:08:54.147Z,94434.38
2023-02-27T09:11:23.445Z,94434.13
2023-02-27T09:13:52.800Z,94449.41
2023-02-27T09:16:21.437Z,94440.41
2023-02-27T09:18:49.878Z,94446.44
2023-02-27T09:21:18.474Z,94444.03
2023-02-27T09:23:46.338Z,94447.91
2023-02-27T09:26:14.297Z,94457.41
2023-02-27T09:28:43.742Z,94451.50
2023-02-27T09:31:12.548Z,94459.06
2023-02-27T09:33:40.655Z,94457.34
2023-02-27T09:36:09.356Z,94454.09
2023-02-27T09:38:38.842Z,94447.19
2023-02-27T09:41:09.117Z,94449.03
2023-02-27T09:43:44.477Z,94441.25
2023-02-27T09:46:19.325Z,94450.56
2023-02-27T09:48:51.611Z,94455.63
2023-02-27T09:51:20.970Z,94459.78
2023-02-27T09:53:52.400Z,94468.69
2023-02-27T09:56:25.378Z,94464.31
2023-02-27T09:59:02.365Z,94472.19
2023-02-27T10:01:37.224Z,94486.09
2023-02-27T10:04:31.884Z,94476.59
2023-02-27T10:07:08.211Z,94482.09
2023-02-27T10:09:45.362Z,94486.13
2023-02-27T10:12:25.404Z,94483.44
2023-02-27T10:14:58.824Z,94479.56
2023-02-27T10:17:31.719Z,94493.13
2023-02-27T10:20:03.854Z,94490.53
2023-02-27T10:22:36.356Z,94490.03
2023-02-27T10:25:28.407Z,94486.53
2023-02-27T10:28:03.751Z,94497.34
2023-02-27T10:30:34.680Z,94489.03
2023-02-27T10:33:10.987Z,94478.94
2023-02-27T10:35:42.326Z,94474.00
2023-02-27T10:38:15.491Z,94473.97
2023-02-27T10:40:44.643Z,94485.56
2023-02-27T10:43:16.725Z,94476.81
2023-02-27T10:45:44.741Z,94459.72
2023-02-27T10:48:14.980Z,94465.81
2023-02-27T10:50:45.043Z,94475.25
2023-02-27T10:53:21.436Z,94473.69
2023-02-27T10:56:01.813Z,94476.03
2023-02-27T10:58:34.775Z,94472.44
2023-02-27T11:01:05.730Z,94476.38
2023-02-27T11:03:41.326Z,94477.84
2023-02-27T11:06:13.744Z,94469.19
2023-02-27T11:08:41.751Z,94476.09
2023-02-27T11:11:12.021Z,94472.59
2023-02-27T11:13:41.435Z,94466.34
2023-02-27T11:16:13.295Z,94461.84
2023-02-27T11:18:47.008Z,94451.84
2023-02-27T11:21:22.796Z,94448.03
2023-02-27T11:23:52.845Z,94449.22
2023-02-27T11:26:24.884Z,94439.09
2023-02-27T11:29:14.947Z,94441.69
2023-02-27T11:31:48.404Z,94452.44
2023-02-27T11:34:30.208Z,94440.81
2023-02-27T11:37:02.837Z,94438.59
2023-02-27T11:39:35.320Z,94433.88
2023-02-27T11:42:18.255Z,94433.38
2023-02-27T11:44:55.970Z,94448.66
2023-02-27T11:47:29.136Z,94451.13
2023-02-27T11:50:39.746Z,94444.50
2023-02-27T11:53:27.192Z,94441.81
2023-02-27T11:55:59.508Z,94446.00
2023-02-27T11:58:33.750Z,94450.56
2023-02-27T12:01:06.702Z,94445.97
2023-02-27T12:03:44.948Z,94436.34
2023-02-27T12:06:19.979Z,94433.50
2023-02-27T12:08:54.427Z,94433.16
2023-02-27T12:11:28.412Z,94436.47
2023-02-27T12:14:04.007Z,94419.63
2023-02-27T12:16:37.428Z,94414.38
2023-02-27T12:19:14.872Z,94417.78
2023-02-27T12:21:49.239Z,94422.91
2023-02-27T12:24:25.934Z,94433.81
2023-02-27T12:27:02.187Z,94431.13
2023-02-27T12:29:37.053Z,94436.94
2023-02-27T12:32:15.876Z,94434.34
2023-02-27T12:34:48.429Z,94424.06
2023-02-27T12:37:29.127Z,94417.44
2023-02-27T12:40:02.382Z,94413.06
2023-02-27T12:43:02.434Z,94411.34
2023-02-27T12:45:49.117Z,94418.97
2023-02-27T12:48:33.738Z,94419.78
2023-02-27T12:51:13.419Z,94421.50
2023-02-27T12:54:06.921Z,94425.47
2023-02-27T12:56:47.192Z,94424.97
2023-02-27T12:59:33.320Z,94432.53
2023-02-27T13:02:16.164Z,94416.78
2023-02-27T13:04:47.001Z,94418.13
2023-02-27T13:07:22.589Z,94432.81
2023-02-27T13:09:54.164Z,94431.59
2023-02-27T13:12:30.680Z,94430.16
2023-02-27T13:15:04.677Z,94429.41
2023-02-27T13:17:38.713Z,94434.22
2023-02-27T13:20:30.746Z,94437.31
2023-02-27T13:23:12.116Z,94436.78
2023-02-27T13:25:44.924Z,94420.78
2023-02-27T13:28:19.490Z,94421.00
2023-02-27T13:30:53.994Z,94421.19
2023-02-27T13:33:30.340Z,94404.50
2023-02-27T13:36:08.591Z,94402.47
2023-02-27T13:38:43.937Z,94423.28
2023-02-27T13:41:38.588Z,94420.78
2023-02-27T13:45:00.737Z,94403.66
2023-02-27T13:47:50.881Z,94408.03
2023-02-27T13:50:51.623Z,94437.25
2023-02-27T13:53:22.491Z,94439.41
2023-02-27T13:56:18.569Z,94448.16
2023-02-27T13:58:46.774Z,94461.44
2023-02-27T14:01:18.897Z,94461.81
2023-02-27T14:03:58.121Z,94463.84
2023-02-27T14:06:28.426Z,94461.16
2023-02-27T14:09:14.862Z,94474.97
2023-02-27T14:11:55.106Z,94451.50
2023-02-27T14:14:45.099Z,94467.94
2023-02-27T14:17:15.578Z,94473.00
2023-02-27T14:20:00.193Z,94460.34
2023-02-27T14:22:54.509Z,94464.22
2023-02-27T14:25:27.453Z,94480.78
2023-02-27T14:27:57.765Z,94487.88
2023-02-27T14:30:39.457Z,94477.34
2023-02-27T14:33:19.483Z,94508.56
2023-02-27T14:35:59.084Z,94502.69
2023-02-27T14:38:29.544Z,94494.41
2023-02-27T14:41:18.760Z,94516.28
2023-02-27T14:43:55.170Z,94533.84
2023-02-27T14:46:27.289Z,94495.41
2023-02-27T14:48:57.363Z,94487.53
2023-02-27T14:51:30.432Z,94510.66
2023-02-27T14:54:07.366Z,94512.41
2023-02-27T14:56:36.110Z,94502.88
2023-02-27T14:59:05.227Z,94522.63
2023-02-27T15:01:37.183Z,94527.97
2023-02-27T15:04:06.226Z,94541.84
2023-02-27T15:06:44.278Z,94539.25
2023-02-27T15:09:22.522Z,94550.22
2023-02-27T15:12:02.589Z,94547.34
2023-02-27T15:14:34.466Z,94558.03
2023-02-27T15:17:02.692Z,94573.03
2023-02-27T15:19:32.360Z,94571.22
2023-02-27T15:22:05.591Z,94568.75
2023-02-27T15:24:49.307Z,94555.94
2023-02-27T15:27:21.331Z,94554.88
2023-02-27T15:29:53.432Z,94548.91
2023-02-27T15:32:27.807Z,94555.75
2023-02-27T15:34:57.366Z,94566.66
2023-02-27T15:37:30.426Z,94564.00
2023-02-27T15:40:00.259Z,94568.53
2023-02-27T15:42:31.880Z,94571.34
2023-02-27T15:45:00.830Z,94576.88
2023-02-27T15:47:30.928Z,94582.22
2023-02-27T15:50:02.869Z,94598.09
2023-02-27T15:52:43.231Z,94609.78
2023-02-27T15:55:16.292Z,94618.19
2023-02-27T15:57:56.629Z,94625.94
2023-02-27T16:00:32.341Z,94635.91
2023-02-27T16:03:01.247Z,94647.88
2023-02-27T16:05:34.518Z,94649.13
2023-02-27T16:08:04.174Z,94647.56
2023-02-27T16:10:37.617Z,94650.50
2023-02-27T16:13:20.913Z,94650.94
2023-02-27T16:16:00.213Z,94641.44
2023-02-27T16:18:34.605Z,94648.59
2023-02-27T16:21:14.690Z,94653.19
2023-02-27T16:23:44.657Z,94653.31
2023-02-27T16:26:28.415Z,94656.84
2023-02-27T16:28:59.913Z,94668.47
2023-02-27T16:31:31.085Z,94665.44
2023-02-27T16:34:02.070Z,94644.78
2023-02-27T16:36:32.564Z,94655.28
2023-02-27T16:39:01.842Z,94661.63
2023-02-27T16:41:30.332Z,94654.41
2023-02-27T16:43:58.367Z,94656.81
2023-02-27T16:46:26.488Z,94655.41
2023-02-27T16:48:55.942Z,94661.94
2023-02-27T16:51:26.400Z,94655.78
2023-02-27T16:53:55.817Z,94653.81
2023-02-27T16:56:37.733Z,94642.44
2023-02-27T16:59:06.078Z,94651.06
2023-02-27T17:01:34.478Z,94669.38
2023-02-27T17:04:05.263Z,94682.00
2023-02-27T17:06:37.032Z,94681.75
2023-02-27T17:09:05.281Z,94668.84
2023-02-27T17:11:34.527Z,94684.88
2023-02-27T17:14:02.453Z,94683.16
2023-02-27T17:16:30.751Z,94689.22
2023-02-27T17:18:58.937Z,94710.47
2023-02-27T17:21:27.631Z,94712.78
2023-02-27T17:23:55.675Z,94710.16
2023-02-27T17:26:23.783Z,94693.78
2023-02-27T17:28:53.014Z,94700.63
2023-02-27T17:31:23.173Z,94704.19
2023-02-27T17:33:51.906Z,94694.06
2023-02-27T17:36:20.162Z,94694.41
2023-02-27T17:38:48.920Z,94682.41
2023-02-27T17:41:17.498Z,94700.69
2023-02-27T17:43:45.447Z,94702.91
2023-02-27T17:46:15.242Z,94693.97
2023-02-27T17:48:43.351Z,94698.25
2023-02-27T17:51:14.482Z,94696.09
2023-02-27T17:53:43.953Z,94706.13
2023-02-27T17:56:13.417Z,94710.84
2023-02-27T17:58:41.644Z,94714.22
2023-02-27T18:01:11.884Z,94719.16
2023-02-27T18:03:44.044Z,94720.25
2023-02-27T18:06:11.995Z,94727.00
2023-02-27T18:08:40.202Z,94726.00
2023-02-27T18:11:10.682Z,94726.88
2023-02-27T18:13:38.987Z,94728.50
2023-02-27T18:16:07.867Z,94730.03
2023-02-27T18:18:36.763Z,94728.13
2023-02-27T18:21:08.152Z,94722.28
2023-02-27T18:23:36.140Z,94722.28
2023-02-27T18:26:04.557Z,94720.91
2023-02-27T18:28:32.563Z,94723.56
2023-02-27T18:31:00.937Z,94735.22
2023-02-27T18:33:29.138Z,94726.00
2023-02-27T18:35:57.180Z,94724.69
2023-02-27T18:38:26.737Z,94728.75
2023-02-27T18:40:55.190Z,94732.59
2023-02-27T18:43:23.085Z,94726.91
2023-02-27T18:45:51.160Z,94725.94
2023-02-27T18:48:19.001Z,94729.84
2023-02-27T18:50:46.911Z,94723.47
2023-02-27T18:53:14.806Z,94730.53
2023-02-27T18:55:44.396Z,94729.16
2023-02-27T18:58:12.286Z,94741.06
2023-02-27T19:00:42.389Z,94747.34
2023-02-27T19:03:10.363Z,94742.72
2023-02-27T19:05:42.045Z,94738.13
2023-02-27T19:08:09.920Z,94743.00
2023-02-27T19:10:39.441Z,94759.19
2023-02-27T19:13:09.475Z,94761.28
2023-02-27T19:15:37.370Z,94781.91
2023-02-27T19:18:05.730Z,94790.25
2023-02-27T19:20:34.755Z,94781.56
2023-02-27T19:23:02.902Z,94765.97
2023-02-27T19:25:32.142Z,94750.66
2023-02-27T19:28:00.446Z,94757.31
2023-02-27T19:30:29.896Z,94761.53
2023-02-27T19:32:57.919Z,94764.19
2023-02-27T19:35:26.488Z,94780.59
2023-02-27T19:37:58.117Z,94790.84
2023-02-27T19:40:27.292Z,94804.66
2023-02-27T19:42:55.155Z,94801.69
2023-02-27T19:45:23.306Z,94798.13
2023-02-27T19:47:53.110Z,94799.13
2023-02-27T19:50:21.046Z,94792.50
2023-02-27T19:52:49.380Z,94800.75
2023-02-27T19:55:17.396Z,94805.53
2023-02-27T19:57:45.357Z,94815.44
2023-02-27T20:00:14.541Z,94813.97
2023-02-27T20:02:42.473Z,94821.44
2023-02-27T20:05:14.629Z,94826.09
2023-02-27T20:07:42.593Z,94831.66
2023-02-27T20:10:12.200Z,94841.34
2023-02-27T20:12:40.086Z,94848.31
2023-02-27T20:15:11.592Z,94845.88
2023-02-27T20:17:41.996Z,94857.66
2023-02-27T20:20:15.089Z,94864.81
2023-02-27T20:22:44.400Z,94843.44
2023-02-27T20:25:13.752Z,94843.97
2023-02-27T20:27:41.679Z,94840.31
2023-02-27T20:30:11.322Z,94841.94
2023-02-27T20:32:39.377Z,94839.50
2023-02-27T20:35:08.619Z,94859.00
2023-02-27T20:37:38.989Z,94854.94
2023-02-27T20:40:08.470Z,94855.63
2023-02-27T20:42:36.498Z,94851.47
2023-02-27T20:45:05.398Z,94842.66
2023-02-27T20:47:34.220Z,94852.31
2023-02-27T20:50:02.230Z,94848.91
2023-02-27T20:52:30.606Z,94857.19
2023-02-27T20:54:59.877Z,94856.44
2023-02-27T20:57:27.744Z,94868.38
2023-02-27T20:59:55.681Z,94857.78
2023-02-27T21:02:23.832Z,94872.72
2023-02-27T21:04:53.465Z,94869.84
2023-02-27T21:07:22.634Z,94869.63
2023-02-27T21:09:51.282Z,94874.56
2023-02-27T21:12:20.641Z,94884.16
2023-02-27T21:14:49.389Z,94887.53
2023-02-27T21:17:17.302Z,94885.34
2023-02-27T21:19:45.195Z,94900.72
2023-02-27T21:22:14.315Z,94905.78
2023-02-27T21:24:42.153Z,94915.97
2023-02-27T21:27:10.138Z,94911.59
2023-02-27T21:29:39.984Z,94929.69
2023-02-27T21:32:08.138Z,94937.84
2023-02-27T21:34:36.113Z,94943.94
2023-02-27T21:37:06.278Z,94948.75
2023-02-27T21:39:34.464Z,94946.06
2023-02-27T21:42:02.343Z,94930.72
2023-02-27T21:44:31.897Z,94946.53
2023-02-27T21:47:10.252Z,94941.00
2023-02-27T21:49:39.296Z,94941.28
2023-02-27T21:52:07.563Z,94930.53
2023-02-27T21:54:35.787Z,94932.88
2023-02-27T21:57:05.472Z,94933.69
2023-02-27T21:59:33.489Z,94931.53
2023-02-27T22:02:02.836Z,94923.81
2023-02-27T22:04:30.728Z,94913.63
2023-02-27T22:06:58.664Z,94908.16
2023-02-27T22:09:26.554Z,94904.34
2023-02-27T22:11:54.430Z,94899.28
2023-02-27T22:14:22.317Z,94897.38
2023-02-27T22:16:50.212Z,94895.56
2023-02-27T22:19:21.976Z,94890.25
2023-02-27T22:21:50.027Z,94893.22
2023-02-27T22:24:18.391Z,94910.38
2023-02-27T22:26:47.815Z,94920.69
2023-02-27T22:29:17.045Z,94928.75
2023-02-27T22:31:45.076Z,94942.13
2023-02-27T22:34:18.130Z,94930.69
2023-02-27T22:36:48.567Z,94940.44
2023-02-27T22:39:16.473Z,94945.72
2023-02-27T22:41:44.614Z,94953.44
2023-02-27T22:44:14.973Z,94950.44
2023-02-27T22:46:45.614Z,94952.88
2023-02-27T22:49:15.523Z,94947.72
2023-02-27T22:51:43.786Z,94942.53
2023-02-27T22:54:15.484Z,94939.69
2023-02-27T22:56:44.007Z,94939.00
2023-02-27T22:59:11.991Z,94947.16
2023-02-27T23:01:40.061Z,94940.50
2023-02-27T23:04:11.342Z,94939.97
2023-02-27T23:06:40.837Z,94951.81
2023-02-27T23:09:11.782Z,94939.31
2023-02-27T23:11:42.067Z,94939.88
2023-02-27T23:14:10.177Z,94951.59
2023-02-27T23:16:38.137Z,94948.59
2023-02-27T23:19:06.238Z,94951.72
2023-02-27T23:21:36.086Z,94958.94
2023-02-27T23:24:05.803Z,94950.94
2023-02-27T23:26:36.366Z,94951.88
2023-02-27T23:29:06.271Z,94950.56
2023-02-27T23:31:40.814Z,94964.28
2023-02-27T23:34:08.907Z,94958.03
2023-02-27T23:36:38.098Z,94946.47
2023-02-27T23:39:06.915Z,94945.50
2023-02-27T23:41:35.599Z,94948.78
2023-02-27T23:44:05.329Z,94942.53
2023-02-27T23:46:33.250Z,94950.78
2023-02-27T23:49:01.962Z,94962.25
2023-02-27T23:51:31.147Z,94956.63
2023-02-27T23:53:59.664Z,94962.91
2023-02-27T23:56:29.732Z,94953.28
2023-02-27T23:58:59.262Z,94943.63
